Lime Ridge, Pennsylvania
Current Conditions -  °F | °C
As of 11:15 PM on Saturday 20 Dec 2014 (Local Time) from KHZL Reporting Station
Overcast Overcast  
Wind Chill: 28°   Ceiling: 2000
Heat Index: 28°   Visibility: 10mi
Dew Point: 21°   Wind: 0mph
Humidity: 74%   Direction: NA
Pressure: 30.24"   Gusts: NA
Location:  41.0301°N, 76.4558°W
Report Text: KHZL 210415Z AUTO 00000KT 10SM OVC020 M02/M06 A3024 RMK AO2
Loading
Personal Weather Stations






























Interactive Weather Map New forecast layout! Learn more

10-Day Weather Forecast

Advertisements
Track Severe Weather on mobile